• Join FlightAware (Why Join?)
  • Login
  • US Flag 
04:43AM EST


 

Airport Tracker/Info


-or-


 

Live Flight TrackerFlight Track Log ✈ N163CA ✈ 06-Nov-2013 ✈ KSFB - KSRQ

Flight Track Log - Related Links

Times and Time Zones

All times are in EST time to prevent confusion due to time zone crossing. See the N163CA flight status page for this flight to view local times or setup timezone preferences in your user account.

Time Position Orientation Groundspeed Altitude Reporting Facility
EST Latitude Longitude Course Direction KTS MPH feet Rate Location/Type
04:06PM 28.7833 -81.2333 90° East 79 91 600  Level Orlando TRACON
04:08PM 28.7833 -81.2000 90° East 76 87 1,300 600 Climbing Orlando TRACON
04:09PM 28.7667 -81.1833 139° Southeast 79 91 2,000 300 Climbing Orlando TRACON
04:09PM 28.7667 -81.1500 90° East 104 120 1,900 -60 Descending Orlando TRACON
04:10PM 28.7667 -81.1167 90° East 107 123 1,900 -120 Level Orlando TRACON
04:11PM 28.7333 -81.1167 180° South 123 142 1,700 240 Descending Orlando TRACON
04:12PM 28.7167 -81.1500 240° Southwest 119 137 2,500 600 Climbing Orlando TRACON
04:13PM 28.7000 -81.1833 240° Southwest 124 143 2,900 120 Climbing Orlando TRACON
04:15PM 28.7000 -81.2333 270° West 129 148 2,800  Descending Orlando TRACON
04:15PM 28.6833 -81.2667 240° Southwest 132 152 2,900  Climbing Orlando TRACON
04:17PM 28.6833 -81.3167 270° West 135 155 2,900  Level Orlando TRACON
04:18PM 28.6833 -81.3500 270° West 138 159 2,900  Level Orlando TRACON
04:18PM 28.6667 -81.4000 249° West 138 159 2,900 60 Level Orlando TRACON
04:19PM 28.6667 -81.4333 270° West 139 160 3,100 360 Climbing Orlando TRACON
04:20PM 28.6667 -81.4667 270° West 121 139 3,600 300 Climbing Orlando TRACON
04:22PM 28.6500 -81.5167 249° West 127 146 3,800 60 Climbing Orlando TRACON
04:22PM 28.6333 -81.5500 240° Southwest 128 147 3,800  Level Orlando TRACON
04:23PM 28.6000 -81.5667 204° Southwest 126 145 3,900  Climbing Orlando TRACON
04:24PM 28.5667 -81.5833 204° Southwest 138 159 3,900 -60 Level Orlando TRACON
04:26PM 28.5333 -81.6167 221° Southwest 141 162 3,800 -60 Descending Orlando TRACON
04:27PM 28.5000 -81.6333 204° Southwest 138 159 3,800  Level Orlando TRACON
04:28PM 28.5000 -81.6833 270° West 139 160 3,800  Level Orlando TRACON
04:29PM 28.4833 -81.7167 240° Southwest 145 167 3,800  Level Orlando TRACON
04:30PM 28.4500 -81.7333 204° Southwest 138 159 3,900  Climbing Orlando TRACON
04:31PM 28.4167 -81.7667 221° Southwest 141 162 3,800  Descending Orlando TRACON
04:33PM 28.3500 -81.8000 204° Southwest 138 159 3,900  Climbing Tampa TRACON
04:34PM 28.3167 -81.8167 204° Southwest 137 158 3,800  Descending Tampa TRACON
04:35PM 28.2667 -81.8500 210° Southwest 138 159 3,900  Climbing Tampa TRACON
04:36PM 28.2500 -81.8667 221° Southwest 136 157 3,900  Level Tampa TRACON
04:37PM 28.2167 -81.8833 204° Southwest 136 157 3,900 -60 Level Tampa TRACON
04:38PM 28.1833 -81.9000 204° Southwest 137 158 3,800 -60 Descending Tampa TRACON
04:39PM 28.1333 -81.9167 196° South 139 160 3,800  Level Tampa TRACON
04:39PM 28.1167 -81.9500 240° Southwest 140 161 3,800  Level Tampa TRACON
04:40PM 28.0833 -81.9667 204° Southwest 140 161 3,800  Level Tampa TRACON
04:41PM 28.0500 -81.9833 204° Southwest 139 160 3,800  Level Tampa TRACON
04:42PM 28.0167 -82.0000 204° Southwest 137 158 3,800  Level Tampa TRACON
04:43PM 27.9667 -82.0167 196° South 137 158 3,800  Level Tampa TRACON
04:44PM 27.9500 -82.0500 240° Southwest 137 158 3,800  Level Tampa TRACON
04:45PM 27.9167 -82.0833 221° Southwest 137 158 3,900  Climbing Tampa TRACON
04:46PM 27.8833 -82.1000 204° Southwest 139 160 3,900  Level Tampa TRACON
04:47PM 27.8667 -82.1333 241° Southwest 143 165 3,900 -60 Level Tampa TRACON
04:48PM 27.8333 -82.1667 221° Southwest 149 171 3,800 -60 Descending Tampa TRACON
04:49PM 27.8000 -82.2000 221° Southwest 153 176 3,800 60 Level Tampa TRACON
04:50PM 27.7667 -82.2167 204° Southwest 149 171 4,000  Climbing Tampa TRACON
04:51PM 27.7333 -82.2500 222° Southwest 153 176 3,800 -60 Descending Tampa TRACON
04:52PM 27.7000 -82.2833 222° Southwest 157 181 3,900  Climbing Tampa TRACON
04:53PM 27.6667 -82.3167 222° Southwest 152 175 3,800 -60 Descending Tampa TRACON
04:54PM 27.6500 -82.3667 249° West 153 176 3,800  Level Tampa TRACON
04:55PM 27.6167 -82.4000 222° Southwest 152 175 3,900 -240 Climbing Tampa TRACON
04:56PM 27.6167 -82.4500 270° West 163 188 3,400 -480 Descending Tampa TRACON
04:57PM 27.6000 -82.5000 249° West 160 184 3,000 -480 Descending Tampa TRACON
04:58PM 27.5833 -82.5500 249° West 158 182 2,500 -480 Descending Tampa TRACON
04:59PM 27.5667 -82.6000 249° West 159 183 2,100 -300 Descending Tampa TRACON
05:00PM 27.5500 -82.6333 241° Southwest 127 146 1,900 -120 Descending Tampa TRACON
05:01PM 27.5333 -82.6667 241° Southwest 121 139 1,900 -60 Level Tampa TRACON
05:02PM 27.5167 -82.6833 222° Southwest 121 139 1,800  Descending Tampa TRACON
05:03PM 27.4833 -82.6667 156° South 108 124 1,900 -60 Climbing Tampa TRACON
05:04PM 27.4667 -82.6333 119° Southeast 109 125 1,700 -420 Descending Tampa TRACON
05:05PM 27.4500 -82.6167 138° Southeast 99 114 1,100 -540 Descending Tampa TRACON
05:06PM 27.4333 -82.5833 119° Southeast 99 114 600 -480 Descending Tampa TRACON
05:07PM 27.4167 -82.5667 138° Southeast 95 109 200  Descending Tampa TRACON
05:10PM 27.3833 -82.5333 138° Southeast 99 114 700 360 Climbing Tampa TRACON
05:11PM 27.3833 -82.5000 90° East 90 104 1,600 720 Climbing Tampa TRACON